Ansonia, CT

4:55 AM EDT on October 23, 2014 (GMT -0400)
Hilltop by Sunnyside School | Change Station
CLOSE
Current Station
Personal Weather Station
Location: Shelton, CT
Elevation: 43 ft
Nearby Weather Stations

Elev 43 ft 41.32 °N, 73.09 °W | Updated 14 seconds ago

Overcast
Overcast
49.0 °F
Feels Like 46 °F
N
6.0
Wind Variable Wind from NE
Gusts 19.0 mph

Today
High -- | Low -- °F
--% Chance of Precip.
Yesterday
High -- | Low -- °F
Precip. -- in
7:13 AM 5:59 PM
Waning Crescent, 0% visible
Pressure 29.69 in
Visibility 10.0 miles
Clouds Overcast 1800 ft
Windchill 46 °F
Dew Point 48 °F
Humidity 96%
Rainfall 0.14 in
Snow Depth Not available.
UV 0 out of 12
Pollen .10 out of 12
Ozone Good
PM2.5 Good
Flu Activity Sporadic
METAR KOXC 230835Z 04009G30KT 10SM OVC018 10/05 A2969 RMK AO1

More Conditions Fewer Conditions

Pressure 29.69 in
Visibility 10.0 miles
Clouds Overcast 1800 ft
Windchill 46 °F
Dew Point 48 °F
Humidity 96%
Rainfall 0.14 in
Snow Depth Not available.
UV 0 out of 12
Pollen .10 out of 12
Ozone Good
PM2.5 Good
Flu Activity Sporadic
METAR KOXC 230835Z 04009G30KT 10SM OVC018 10/05 A2969 RMK AO1

More Conditions Fewer Conditions

10-Day Weather Forecast

Almanac

Astronomy

Oct. 23, 2014 Rise Set
Actual Time 7:13 AM EDT 5:59 PM EDT
Civil Twilight 6:44 AM EDT 6:27 PM EDT
Nautical Twilight 6:12 AM EDT 6:59 PM EDT
Astronomical Twilight 5:40 AM EDT 7:31 PM EDT
Moon 6:49 AM EDT 5:59 PM EDT
Length of Visible Light 11h 42m
Length of Day
10h 46m
Tomorrow will be 2m 34s shorter.
Waning Crescent, 0% of the Moon is Illuminated
Today
Waning Crescent
Oct 23
New
Oct 30
First Quarter
Nov 6
Full
Nov 14
Last Quarter

Today's Extremes

State Highs State Lows

Community

WunderPhotos

Upload Photos

1,764,197 photos uploaded!

Nearby

Air Quality

  Air Quality AQ Index Pollutant
Yesterday Good
PM10
Yesterday Good
OZONE
Current Good
PM2.5
Current Good
OZONE
Thursday Good
PM2.5

Snow Depth

Station Depth Elevation
No new snow has been reported.

Earthquake Activity

City Distance Mag. Time & Date
No recent earthquake activity has been reported nearby.
Minimum magnitude displayed is 2.5.

Coastal Water Temperatures

Place Temperature
Bridgeport, CT 61.0 °F

Nearby Weather Stations